NSCO2: Spavinaw Creek nr Eucha OK

Data processed at Sat Mar 10 2018 23:50


All information presented herein is the property of the government of the United States of America and may be revised or deleted at any time without prior notice.
Dissemination of this information without the expressed written consent of the Public Affairs Office, Tulsa District U.S. Army Corps of Engineers is strictly prohibited.
These data are gathered electronically and, as presented, have not undergone any form of quality control. These data are not guaranteed to be valid or correct.
Go to home page.
Go to station list.

Upstream stations:

Downstream station:
Previous Day
Next Day
Current Day
    
SHEF ID:       NSCO2     Spavinaw Creek near Eucha, OK
STATION TYPE:  

               PRECIP     STAGE  RIV-FLOW  BAT-LOAD
                   in        ft       cfs      volt
              Ccp-Rev   Ccp-Rev   Ccp-Rev   Ccp-Rev
(US/Central)
03/08 00:00      0.00      9.49       300     12.60
03/08 01:00      0.00      9.49       300     12.60
03/08 02:00      0.00      9.48       296     12.54
03/08 03:00      0.00      9.48       296     12.54
03/08 04:00      0.00      9.47       292     12.54
03/08 05:00      0.00      9.47       292     12.48
03/08 06:00      0.00      9.47       292     12.48
03/08 07:00      0.00      9.47       292     12.42
03/08 08:00      0.00      9.47       292     12.42
03/08 09:00      0.00      9.47       292     12.48
03/08 10:00      0.00      9.46       288     12.65
03/08 11:00      0.00      9.44       280     12.95
03/08 12:00      0.00      9.48       296     13.24
03/08 13:00      0.00      9.48       296     13.18
03/08 14:00      0.00      9.49       300     13.07
03/08 15:00      0.00      9.49       300     12.89
03/08 16:00      0.00      9.46       288     12.89
03/08 17:00      0.00      9.48       296     12.89
03/08 18:00      0.00      9.46       288     12.77
03/08 19:00      0.00      9.46       288     12.71
03/08 20:00      0.00      9.47       292     12.65
03/08 21:00      0.00      9.47       292     12.65
03/08 22:00      0.00      9.47       292     12.60
03/08 23:00      0.00      9.46       288     12.60